Gadsden, South Carolina
Current Conditions -  °F | °C
As of 5:58 AM on Thursday 23 Oct 2014 (Local Time) from KMMT Reporting Station
Clear Clear  
Wind Chill: 37°   Ceiling: Unl
Heat Index: 40°   Visibility: 10mi
Dew Point: 38°   Wind: 5mph
Humidity: 93%   Direction: 290°WNW
Pressure: 30.08"   Gusts: NA
Location:  33.85°N, 80.77°W
Report Text: KMMT 230958Z AUTO 29004KT 10SM CLR 05/03 A3008 RMK AO2 SLP189 T00450034
Loading
Personal Weather Stations






























Interactive Weather Map
Tropical Storm Tracking
New forecast layout! Learn more

10-Day Weather Forecast

Advertisements
Track Severe Weather on mobile